高雄終端管制區 - 高雄雷達席

METAR RCKH 011530Z 36003KT 300V020 9999 FEW016 SCT035 22/17 Q1016 NOSIG RMK A3001=

站台狀態:Offline
最後更新:2022-12-01 23:30:02